Time;durP1;ratioP1;P1;durP2;ratioP2;P2;SDS_P1;SDS_P2;PMS_P1;PMS_P2;Temp;Humidity;BMP_temperature;BMP_pressure;BME280_temperature;BME280_humidity;BME280_pressure;Samples;Min_cycle;Max_cycle;Signal;HPM_P1;HPM_P2
2023/01/17 00:02:17;;;;;;;0.50;0.30;;;21.70;33.30;;;;;;5029856;28;20029;-54
2023/01/17 00:10:16;;;;;;;0.45;0.25;;;21.70;33.30;;;;;;5031398;28;20041;-52
2023/01/17 00:12:54;;;;;;;0.40;0.20;;;21.60;33.30;;;;;;5033068;28;20083;-50
2023/01/17 00:15:22;;;;;;;0.82;0.25;;;21.60;33.40;;;;;;5028316;28;20032;-51
2023/01/17 00:17:49;;;;;;;0.85;0.40;;;21.60;33.40;;;;;;5032683;28;20036;-51
2023/01/17 00:26:02;;;;;;;0.45;0.20;;;21.60;33.40;;;;;;5028232;28;20346;-54
2023/01/17 01:35:28;;;;;;;;;;;21.20;33.10;;;;;;5031824;28;20031;-50
2023/01/17 01:37:55;;;;;;;0.93;0.30;;;21.20;33.10;;;;;;5026770;28;20314;-51
2023/01/17 01:40:20;;;;;;;0.73;0.30;;;21.20;33.10;;;;;;5029401;28;20052;-53
2023/01/17 01:42:53;;;;;;;0.50;0.20;;;21.20;33.10;;;;;;5028912;28;20057;-54
2023/01/17 01:45:25;;;;;;;0.65;0.20;;;21.20;33.00;;;;;;5025747;28;20129;-54
2023/01/17 01:48:01;;;;;;;0.77;0.20;;;21.20;33.00;;;;;;5026983;28;20036;-52
2023/01/17 01:50:29;;;;;;;0.57;0.20;;;21.20;32.90;;;;;;5027455;28;20021;-53
2023/01/17 01:52:59;;;;;;;0.30;0.20;;;21.10;32.80;;;;;;5029292;28;20109;-53
2023/01/17 01:55:38;;;;;;;0.57;0.10;;;21.10;32.80;;;;;;5027182;28;20039;-51
2023/01/17 01:58:17;;;;;;;0.15;0.10;;;21.20;32.80;;;;;;5028136;28;20117;-51
2023/01/17 02:00:43;;;;;;;0.40;0.20;;;21.10;32.70;;;;;;5030157;28;20227;-52
2023/01/17 02:03:30;;;;;;;0.35;0.10;;;21.10;32.80;;;;;;5024283;28;20026;-49
2023/01/17 02:06:07;;;;;;;1.13;0.65;;;21.10;32.70;;;;;;5026246;28;20036;-53
2023/01/17 02:08:34;;;;;;;0.13;0.13;;;21.10;32.70;;;;;;5026381;28;20042;-53
2023/01/17 02:11:00;;;;;;;0.25;0.13;;;21.10;32.70;;;;;;5031053;28;20090;-47
2023/01/17 02:13:27;;;;;;;0.90;0.17;;;21.10;32.70;;;;;;5029871;28;20404;-53
2023/01/17 02:16:05;;;;;;;0.17;0.00;;;21.10;32.70;;;;;;5030840;28;20036;-53
2023/01/17 02:18:49;;;;;;;1.60;0.10;;;21.10;32.70;;;;;;5026689;28;20042;-53
2023/01/17 02:21:54;;;;;;;0.35;0.10;;;21.00;32.70;;;;;;5027591;28;20033;-53
2023/01/17 02:24:32;;;;;;;0.80;0.10;;;21.00;32.70;;;;;;4995363;28;20052;-53
2023/01/17 02:27:21;;;;;;;0.50;0.15;;;21.00;32.60;;;;;;5029730;28;20029;-49
2023/01/17 02:30:09;;;;;;;0.45;0.20;;;21.00;32.60;;;;;;5029175;28;20480;-48
2023/01/17 02:33:13;;;;;;;0.60;0.20;;;21.00;32.60;;;;;;5028129;28;20033;-50
2023/01/17 02:35:47;;;;;;;0.50;0.10;;;21.00;32.60;;;;;;4988380;28;20475;-51
2023/01/17 02:38:16;;;;;;;0.20;0.10;;;21.00;32.70;;;;;;5017717;28;20076;-51
2023/01/17 02:40:52;;;;;;;0.17;0.10;;;21.00;32.60;;;;;;5028978;28;20029;-52
2023/01/17 02:43:20;;;;;;;0.70;0.20;;;20.90;32.50;;;;;;5029113;28;20155;-54
2023/01/17 02:45:46;;;;;;;0.52;0.10;;;20.90;32.60;;;;;;5029174;28;20449;-51
2023/01/17 02:48:15;;;;;;;0.30;0.10;;;21.00;32.60;;;;;;5029855;28;20053;-50
2023/01/17 02:50:44;;;;;;;0.57;0.20;;;20.90;32.60;;;;;;5023376;28;20026;-52
2023/01/17 02:53:43;;;;;;;1.48;0.20;;;20.90;32.60;;;;;;5029434;28;20029;-49
2023/01/17 02:56:24;;;;;;;1.00;0.20;;;20.90;32.60;;;;;;5028437;28;20039;-52
2023/01/17 02:59:10;;;;;;;1.27;0.10;;;20.90;32.60;;;;;;5029427;28;20126;-49
2023/01/17 03:01:39;;;;;;;0.38;0.10;;;20.80;33.20;;;;;;5028498;28;20030;-48
2023/01/17 03:04:16;;;;;;;0.05;0.05;;;20.90;32.70;;;;;;5018372;28;20369;-51
2023/01/17 03:06:56;;;;;;;0.73;0.20;;;20.80;33.30;;;;;;5027314;28;20127;-52
2023/01/17 03:09:24;;;;;;;1.27;0.28;;;20.80;32.60;;;;;;5017437;28;20112;-50
2023/01/17 03:11:51;;;;;;;0.43;0.10;;;20.80;32.70;;;;;;5026087;28;20040;-50
2023/01/17 03:14:17;;;;;;;0.88;0.20;;;20.80;32.60;;;;;;5029338;28;20477;-50
2023/01/17 03:16:43;;;;;;;0.30;0.10;;;20.80;32.60;;;;;;5025707;28;20049;-53
2023/01/17 03:19:09;;;;;;;0.55;0.20;;;20.80;32.70;;;;;;5024372;28;20083;-53
2023/01/17 03:21:35;;;;;;;0.40;0.10;;;20.80;32.60;;;;;;5023602;28;20076;-53
2023/01/17 03:24:01;;;;;;;0.43;0.17;;;20.80;32.70;;;;;;5027157;28;20025;-53
2023/01/17 03:26:27;;;;;;;0.10;0.10;;;20.80;32.60;;;;;;5025324;28;20041;-51
2023/01/17 03:28:53;;;;;;;0.50;0.20;;;20.80;32.50;;;;;;5028286;28;20069;-48
2023/01/17 03:31:19;;;;;;;0.28;0.10;;;20.80;32.60;;;;;;5030744;28;20057;-53
2023/01/17 03:33:45;;;;;;;0.30;0.10;;;20.80;32.60;;;;;;5032862;28;20116;-50
2023/01/17 03:36:11;;;;;;;0.10;0.10;;;20.80;32.60;;;;;;5031584;28;20025;-52
2023/01/17 03:38:37;;;;;;;0.13;0.10;;;20.70;32.50;;;;;;5032618;28;20056;-49
2023/01/17 03:41:04;;;;;;;0.10;0.10;;;20.70;32.60;;;;;;5031619;28;20028;-52
2023/01/17 03:43:29;;;;;;;0.20;0.10;;;20.70;32.50;;;;;;5031989;28;20061;-52
2023/01/17 03:46:03;;;;;;;0.47;0.15;;;20.70;32.50;;;;;;5033263;28;20075;-53
2023/01/17 03:48:30;;;;;;;0.10;0.10;;;20.70;32.50;;;;;;5029698;28;20103;-52
2023/01/17 03:50:56;;;;;;;0.75;0.20;;;20.70;32.50;;;;;;5033555;28;20037;-50
2023/01/17 03:53:21;;;;;;;0.45;0.10;;;20.70;32.50;;;;;;5030839;28;20029;-50
2023/01/17 03:55:47;;;;;;;1.58;0.20;;;20.70;32.50;;;;;;5031577;28;20040;-53
2023/01/17 03:58:14;;;;;;;0.77;0.20;;;20.60;32.50;;;;;;5030926;28;20030;-49
2023/01/17 04:00:40;;;;;;;0.52;0.20;;;20.60;32.50;;;;;;5032175;28;20557;-51
2023/01/17 04:03:06;;;;;;;0.15;0.10;;;20.70;33.20;;;;;;5031085;28;20029;-53
2023/01/17 04:05:31;;;;;;;0.45;0.20;;;20.60;32.60;;;;;;5032446;28;20025;-51
2023/01/17 04:07:57;;;;;;;0.30;0.13;;;20.60;32.60;;;;;;5028067;28;20017;-49
2023/01/17 04:10:23;;;;;;;0.55;0.30;;;20.60;32.60;;;;;;5032858;28;20406;-50
2023/01/17 04:12:49;;;;;;;0.60;0.10;;;20.60;32.60;;;;;;5031726;28;20064;-45
2023/01/17 04:15:15;;;;;;;0.63;0.28;;;20.60;32.60;;;;;;5030545;28;20361;-49
2023/01/17 04:17:41;;;;;;;0.50;0.10;;;20.60;32.60;;;;;;5027971;28;20084;-49
2023/01/17 04:20:12;;;;;;;0.45;0.20;;;20.50;32.60;;;;;;5029585;28;20045;-50
2023/01/17 04:22:38;;;;;;;0.45;0.30;;;20.50;32.50;;;;;;5029200;28;20029;-52
2023/01/17 04:25:04;;;;;;;0.20;0.10;;;20.50;32.50;;;;;;5029205;28;20083;-49
2023/01/17 04:27:30;;;;;;;0.55;0.20;;;20.50;32.50;;;;;;5029020;28;20048;-52
2023/01/17 04:29:55;;;;;;;1.05;0.30;;;20.50;32.50;;;;;;5029325;28;20479;-52
2023/01/17 04:32:21;;;;;;;0.88;0.20;;;20.50;32.50;;;;;;5030132;28;20109;-52
2023/01/17 04:34:47;;;;;;;0.68;0.30;;;20.50;32.50;;;;;;5027169;28;20026;-53
2023/01/17 04:37:13;;;;;;;0.32;0.20;;;20.50;32.50;;;;;;5027593;28;20026;-49
2023/01/17 04:39:39;;;;;;;0.52;0.10;;;20.50;32.50;;;;;;5031163;28;20037;-51
2023/01/17 04:42:04;;;;;;;0.98;0.32;;;20.50;32.50;;;;;;5031579;28;20041;-50
2023/01/17 04:44:30;;;;;;;0.38;0.20;;;20.50;32.50;;;;;;5027055;28;20026;-48
2023/01/17 04:46:56;;;;;;;1.08;0.32;;;20.50;32.50;;;;;;5031305;28;20430;-52
2023/01/17 04:49:22;;;;;;;0.98;0.28;;;20.50;32.50;;;;;;5027051;28;20033;-51
2023/01/17 04:51:47;;;;;;;1.00;0.13;;;20.50;32.50;;;;;;5030652;28;20021;-51
2023/01/17 04:54:13;;;;;;;0.28;0.20;;;20.40;32.50;;;;;;5028360;28;20068;-53
2023/01/17 04:56:39;;;;;;;0.75;0.30;;;20.40;32.50;;;;;;5029287;28;20112;-46
2023/01/17 04:59:05;;;;;;;0.47;0.20;;;20.40;32.50;;;;;;5030600;28;20674;-50
2023/01/17 05:01:31;;;;;;;1.00;0.30;;;20.40;32.50;;;;;;5028567;28;20025;-50
2023/01/17 05:03:56;;;;;;;0.73;0.30;;;20.40;32.60;;;;;;5030088;28;20196;-52
2023/01/17 05:06:22;;;;;;;0.95;0.17;;;20.40;32.60;;;;;;5029246;28;20025;-47
2023/01/17 05:08:48;;;;;;;0.75;0.30;;;20.40;32.60;;;;;;5028260;28;20038;-52
2023/01/17 05:11:14;;;;;;;0.82;0.28;;;20.40;32.60;;;;;;5020095;28;20479;-50
2023/01/17 05:13:40;;;;;;;0.43;0.30;;;20.40;33.30;;;;;;5028217;28;20065;-53
2023/01/17 05:16:06;;;;;;;0.28;0.20;;;20.40;32.60;;;;;;5030596;28;20445;-49
2023/01/17 05:18:31;;;;;;;0.60;0.20;;;20.40;32.60;;;;;;5027112;28;20037;-50
2023/01/17 05:21:04;;;;;;;0.38;0.10;;;20.30;32.60;;;;;;5030893;28;20041;-47
2023/01/17 05:23:31;;;;;;;0.10;0.10;;;20.30;32.60;;;;;;5028693;28;20017;-48
2023/01/17 05:25:57;;;;;;;0.52;0.13;;;20.30;32.60;;;;;;5029128;28;20469;-49
2023/01/17 05:28:24;;;;;;;0.55;0.15;;;20.30;32.60;;;;;;5011790;28;20075;-50
2023/01/17 05:30:50;;;;;;;1.30;0.30;;;20.30;32.60;;;;;;5020745;28;20044;-53
2023/01/17 05:33:16;;;;;;;0.73;0.20;;;20.30;32.60;;;;;;5016632;28;20052;-50
2023/01/17 05:35:42;;;;;;;0.77;0.30;;;20.30;32.60;;;;;;5030556;28;20033;-51
2023/01/17 05:38:08;;;;;;;1.15;0.20;;;20.30;32.60;;;;;;5016146;28;20033;-51
2023/01/17 05:40:34;;;;;;;2.40;0.28;;;20.30;32.60;;;;;;5029121;28;20022;-52
2023/01/17 05:43:02;;;;;;;0.93;0.22;;;20.30;32.50;;;;;;5030184;28;20060;-50
2023/01/17 05:45:30;;;;;;;0.77;0.40;;;20.30;32.60;;;;;;5030924;28;20030;-49
2023/01/17 05:47:57;;;;;;;2.22;0.30;;;20.30;32.60;;;;;;5029923;28;20026;-49
2023/01/17 05:50:29;;;;;;;1.45;0.40;;;20.20;32.50;;;;;;5030734;28;20029;-53
2023/01/17 05:53:07;;;;;;;0.88;0.30;;;20.20;32.50;;;;;;5026575;28;20108;-49
2023/01/17 05:55:34;;;;;;;0.90;0.30;;;20.20;32.50;;;;;;5035303;28;20072;-52
2023/01/17 05:58:00;;;;;;;0.90;0.22;;;20.20;32.60;;;;;;5026414;28;20029;-49
2023/01/17 06:00:28;;;;;;;0.65;0.20;;;20.20;32.60;;;;;;5031091;28;20103;-51
2023/01/17 06:02:56;;;;;;;1.05;0.30;;;20.20;32.60;;;;;;5028490;28;20103;-51
2023/01/17 06:05:22;;;;;;;0.60;0.20;;;20.20;32.60;;;;;;5020578;28;20033;-50
2023/01/17 06:07:48;;;;;;;0.40;0.20;;;20.20;32.60;;;;;;5028508;28;20037;-49
2023/01/17 06:10:19;;;;;;;1.05;0.30;;;20.20;33.20;;;;;;5027407;28;20041;-48
2023/01/17 06:12:46;;;;;;;1.67;0.30;;;20.20;32.60;;;;;;5028878;28;20018;-51
2023/01/17 06:15:14;;;;;;;0.82;0.20;;;20.10;32.60;;;;;;5029039;28;20090;-48
2023/01/17 06:17:40;;;;;;;2.28;0.40;;;20.10;32.60;;;;;;5030117;28;20025;-51
2023/01/17 06:20:08;;;;;;;1.38;0.30;;;20.10;32.60;;;;;;5015266;28;20056;-50
2023/01/17 06:22:34;;;;;;;0.85;0.30;;;20.10;32.60;;;;;;5026475;28;20032;-52
2023/01/17 06:25:00;;;;;;;1.27;0.38;;;20.10;32.60;;;;;;5027950;28;20034;-50
2023/01/17 06:27:26;;;;;;;1.85;0.50;;;20.10;32.60;;;;;;5027627;28;20342;-50
2023/01/17 06:29:51;;;;;;;0.75;0.22;;;20.10;32.60;;;;;;5029836;28;20037;-52
2023/01/17 06:32:17;;;;;;;1.80;0.40;;;20.10;32.60;;;;;;5026773;28;20026;-50
2023/01/17 06:34:43;;;;;;;0.85;0.28;;;20.10;32.60;;;;;;5027490;28;20025;-49
2023/01/17 06:37:09;;;;;;;1.02;0.30;;;20.10;32.60;;;;;;5027211;28;20049;-50
2023/01/17 06:39:35;;;;;;;0.50;0.20;;;20.00;32.50;;;;;;5016995;28;20021;-52
2023/01/17 06:42:01;;;;;;;1.17;0.20;;;20.10;32.60;;;;;;5029116;28;20037;-52
2023/01/17 06:44:27;;;;;;;0.85;0.20;;;20.00;32.50;;;;;;5026407;28;20056;-49
2023/01/17 06:46:53;;;;;;;1.25;0.22;;;20.10;32.60;;;;;;5029717;28;20057;-50
2023/01/17 06:49:19;;;;;;;0.93;0.30;;;20.00;32.50;;;;;;5028073;28;20475;-52
2023/01/17 06:51:45;;;;;;;0.80;0.40;;;20.00;32.50;;;;;;5015153;28;20060;-47
2023/01/17 06:54:11;;;;;;;1.75;0.40;;;20.00;32.50;;;;;;5028036;28;20021;-50
2023/01/17 06:56:37;;;;;;;0.40;0.35;;;20.00;32.60;;;;;;5030351;28;20100;-51
2023/01/17 06:59:03;;;;;;;0.90;0.30;;;20.00;32.50;;;;;;5028851;28;20528;-50
2023/01/17 07:01:29;;;;;;;0.85;0.30;;;20.00;32.50;;;;;;5029682;28;20028;-50
2023/01/17 07:03:56;;;;;;;1.50;0.32;;;20.00;32.50;;;;;;5029088;28;20108;-46
2023/01/17 07:06:27;;;;;;;0.80;0.38;;;20.00;32.50;;;;;;5033106;28;20037;-49
2023/01/17 07:08:54;;;;;;;0.85;0.40;;;20.00;32.50;;;;;;5031189;28;20056;-47
2023/01/17 07:11:20;;;;;;;1.50;0.45;;;19.90;32.50;;;;;;5030020;28;20040;-49
2023/01/17 07:13:46;;;;;;;0.73;0.30;;;19.90;32.50;;;;;;5019308;28;20045;-50
2023/01/17 07:16:12;;;;;;;1.10;0.32;;;19.90;32.50;;;;;;5030545;28;20040;-52
2023/01/17 07:18:38;;;;;;;1.85;0.43;;;19.90;32.60;;;;;;5036842;28;20409;-51
2023/01/17 07:21:04;;;;;;;0.50;0.20;;;19.90;32.60;;;;;;5031349;28;20030;-49
2023/01/17 07:23:30;;;;;;;1.38;0.50;;;19.90;32.60;;;;;;5018825;28;20029;-52
2023/01/17 07:25:58;;;;;;;2.40;0.47;;;19.90;32.60;;;;;;5029901;28;20029;-52
2023/01/17 07:28:25;;;;;;;1.45;0.45;;;19.90;32.60;;;;;;5026584;28;20121;-52
2023/01/17 07:30:51;;;;;;;0.82;0.40;;;19.90;32.60;;;;;;5023854;28;20029;-50
2023/01/17 07:33:17;;;;;;;1.98;0.50;;;19.90;32.60;;;;;;5028010;28;20033;-52
2023/01/17 07:35:44;;;;;;;1.00;0.55;;;19.90;32.60;;;;;;5029452;28;20030;-48
2023/01/17 07:38:14;;;;;;;2.00;0.60;;;19.90;32.60;;;;;;5003987;28;20389;-49
2023/01/17 07:40:40;;;;;;;2.92;0.70;;;19.80;32.60;;;;;;5023808;28;20429;-50
2023/01/17 07:43:16;;;;;;;2.38;1.15;;;19.90;32.60;;;;;;5029720;28;20029;-52
2023/01/17 07:45:44;;;;;;;2.35;0.57;;;19.80;32.60;;;;;;5016883;28;20087;-52
2023/01/17 07:48:11;;;;;;;2.47;0.80;;;19.80;32.60;;;;;;5026774;28;20034;-51
2023/01/17 07:50:37;;;;;;;2.20;0.85;;;19.90;32.70;;;;;;5025915;28;20022;-48
2023/01/17 07:53:04;;;;;;;2.40;0.68;;;19.90;32.80;;;;;;5022954;28;20056;-51
2023/01/17 07:55:30;;;;;;;2.10;0.80;;;19.90;32.90;;;;;;5025136;28;20076;-52
2023/01/17 07:57:56;;;;;;;3.95;0.80;;;19.90;33.10;;;;;;5027332;28;20037;-53
2023/01/17 08:00:28;;;;;;;3.58;1.10;;;19.90;33.20;;;;;;5025587;28;20322;-52
2023/01/17 08:02:56;;;;;;;2.13;0.57;;;19.90;33.30;;;;;;5023404;28;20031;-48
2023/01/17 08:05:22;;;;;;;1.83;0.60;;;19.90;33.40;;;;;;5024441;28;20058;-55
2023/01/17 08:07:48;;;;;;;1.77;0.70;;;20.00;33.60;;;;;;5022992;28;20021;-50
2023/01/17 08:10:16;;;;;;;3.78;0.88;;;20.00;33.60;;;;;;5026445;28;20041;-55
2023/01/17 08:12:46;;;;;;;4.60;1.00;;;20.10;33.70;;;;;;5030158;28;20037;-50
2023/01/17 08:15:13;;;;;;;5.40;1.20;;;20.10;33.80;;;;;;5028886;28;20113;-54
2023/01/17 08:17:43;;;;;;;4.65;1.20;;;20.20;33.90;;;;;;5021522;28;20050;-50
2023/01/17 08:20:09;;;;;;;4.38;1.30;;;20.30;34.00;;;;;;5031448;28;20054;-52
2023/01/17 08:22:35;;;;;;;5.93;1.20;;;20.30;34.00;;;;;;5034269;28;20021;-49
2023/01/17 08:25:01;;;;;;;4.68;1.40;;;20.40;34.00;;;;;;5035014;28;20507;-50
2023/01/17 08:27:28;;;;;;;3.88;1.10;;;20.40;34.60;;;;;;5030260;28;20026;-51
2023/01/17 08:29:54;;;;;;;2.65;0.88;;;20.50;34.00;;;;;;5019952;28;20045;-56
2023/01/17 08:32:22;;;;;;;6.03;1.10;;;20.50;34.00;;;;;;5022953;28;20423;-53
2023/01/17 08:34:48;;;;;;;2.95;1.02;;;20.60;34.00;;;;;;5025512;28;20033;-52
2023/01/17 08:37:13;;;;;;;3.95;1.30;;;20.60;33.90;;;;;;5023340;28;20029;-54
2023/01/17 08:39:39;;;;;;;3.10;1.27;;;20.70;33.90;;;;;;5024678;28;20428;-54
2023/01/17 08:42:05;;;;;;;4.00;1.13;;;20.70;33.80;;;;;;5021704;28;20096;-52
2023/01/17 08:44:31;;;;;;;1.50;0.68;;;20.80;33.70;;;;;;5028209;28;20091;-50
2023/01/17 08:46:57;;;;;;;3.60;1.20;;;20.80;33.60;;;;;;5020035;28;20037;-48
2023/01/17 08:49:24;;;;;;;3.55;0.88;;;20.90;33.50;;;;;;5024084;28;20051;-51
2023/01/17 08:51:51;;;;;;;2.85;0.90;;;20.90;33.40;;;;;;5008472;28;20053;-51
2023/01/17 08:54:21;;;;;;;4.40;1.65;;;21.00;33.40;;;;;;5020330;28;20389;-54
2023/01/17 08:56:48;;;;;;;2.85;0.90;;;21.00;33.40;;;;;;5026050;28;20043;-52
2023/01/17 08:59:14;;;;;;;4.40;1.10;;;21.10;33.40;;;;;;5013702;28;20022;-49
2023/01/17 09:01:40;;;;;;;4.32;1.20;;;21.10;33.90;;;;;;5036058;28;20332;-51
2023/01/17 09:04:10;;;;;;;3.03;1.23;;;21.20;33.20;;;;;;5036355;28;20113;-49
2023/01/17 09:06:41;;;;;;;1.73;0.80;;;21.20;33.00;;;;;;5035561;28;20029;-52
2023/01/17 09:09:07;;;;;;;2.63;0.90;;;21.30;32.80;;;;;;5035169;28;20033;-53
2023/01/17 09:11:33;;;;;;;4.47;1.23;;;21.30;32.70;;;;;;5019545;28;20029;-53
2023/01/17 09:14:00;;;;;;;2.08;0.80;;;21.40;32.50;;;;;;5034349;28;20076;-50
2023/01/17 09:16:27;;;;;;;2.70;1.13;;;21.40;32.40;;;;;;5035327;28;20369;-50
2023/01/17 09:18:57;;;;;;;1.83;0.68;;;21.40;32.30;;;;;;5023539;28;20045;-49
2023/01/17 09:21:25;;;;;;;3.00;1.10;;;21.50;32.20;;;;;;5034022;28;20048;-51
2023/01/17 09:23:51;;;;;;;2.60;0.90;;;21.50;32.10;;;;;;5033785;28;20044;-51
2023/01/17 09:26:28;;;;;;;2.38;0.93;;;21.60;32.00;;;;;;5034025;28;20026;-55
2023/01/17 09:28:55;;;;;;;3.13;0.95;;;21.60;31.90;;;;;;5032951;28;20037;-52
2023/01/17 09:31:22;;;;;;;1.48;0.70;;;21.60;31.80;;;;;;5033486;28;20540;-53
2023/01/17 09:33:49;;;;;;;2.90;0.80;;;21.60;31.70;;;;;;5033841;28;20388;-52
2023/01/17 09:36:16;;;;;;;3.92;1.10;;;21.70;31.60;;;;;;5035072;28;20037;-53
2023/01/17 09:38:42;;;;;;;1.58;0.70;;;21.70;31.50;;;;;;5035455;28;20100;-54
2023/01/17 09:41:35;;;;;;;1.77;1.00;;;21.70;31.50;;;;;;5035500;28;20461;-54
2023/01/17 09:44:23;;;;;;;2.67;0.80;;;21.70;31.40;;;;;;5035039;28;20033;-52
2023/01/17 09:46:53;;;;;;;1.85;0.65;;;21.80;31.40;;;;;;5034114;28;20456;-52
2023/01/17 09:49:42;;;;;;;2.25;0.95;;;21.80;31.30;;;;;;5035421;28;20040;-52
2023/01/17 09:52:11;;;;;;;3.00;0.77;;;21.80;31.20;;;;;;5034734;28;20029;-50
2023/01/17 09:54:40;;;;;;;1.65;0.70;;;21.80;31.20;;;;;;5034893;28;20028;-51
2023/01/17 09:57:18;;;;;;;2.25;0.60;;;21.80;31.10;;;;;;5035464;28;20026;-51
2023/01/17 09:59:51;;;;;;;1.85;0.70;;;21.80;31.10;;;;;;5035298;28;20448;-50
2023/01/17 10:02:29;;;;;;;2.50;0.85;;;21.90;31.10;;;;;;5034334;28;20033;-52
2023/01/17 10:05:30;;;;;;;3.38;1.00;;;21.80;31.00;;;;;;5034976;28;20033;-48
2023/01/17 10:08:16;;;;;;;1.15;0.68;;;21.90;31.00;;;;;;5034340;28;20464;-50
2023/01/17 10:10:53;;;;;;;2.95;1.10;;;21.80;30.90;;;;;;5021008;28;20097;-52
2023/01/17 10:13:49;;;;;;;2.58;0.63;;;21.80;30.80;;;;;;5035436;28;20321;-51
2023/01/17 10:16:40;;;;;;;1.48;0.70;;;21.80;30.80;;;;;;5034824;28;20079;-50
2023/01/17 10:19:28;;;;;;;3.30;1.17;;;21.80;31.40;;;;;;5033483;28;20488;-54
2023/01/17 10:22:10;;;;;;;2.20;0.77;;;21.80;30.70;;;;;;5035068;28;20059;-50
2023/01/17 10:25:00;;;;;;;1.88;0.90;;;21.80;30.70;;;;;;5013173;28;20064;-49
2023/01/17 10:27:50;;;;;;;1.48;0.85;;;21.80;30.60;;;;;;5034480;28;20026;-51
2023/01/17 10:30:23;;;;;;;2.80;1.00;;;21.80;31.30;;;;;;5015004;28;20045;-50
2023/01/17 10:32:49;;;;;;;2.03;0.80;;;21.80;30.60;;;;;;5005741;28;20330;-52
2023/01/17 10:35:37;;;;;;;1.92;0.80;;;21.80;30.60;;;;;;5033797;28;20080;-53
2023/01/17 10:38:09;;;;;;;2.17;0.90;;;21.80;30.60;;;;;;5035184;28;20030;-49
2023/01/17 10:41:07;;;;;;;1.55;0.80;;;21.80;30.60;;;;;;5038644;28;20068;-55
2023/01/17 10:43:43;;;;;;;3.65;0.98;;;21.70;30.60;;;;;;4995163;28;20037;-53
2023/01/17 10:46:32;;;;;;;1.95;0.90;;;21.70;30.60;;;;;;5033611;28;20026;-52
2023/01/17 10:49:00;;;;;;;1.30;0.68;;;21.70;30.70;;;;;;5007574;28;20096;-52
2023/01/17 10:51:51;;;;;;;2.00;0.77;;;21.70;31.30;;;;;;5002531;28;20420;-51
2023/01/17 10:54:23;;;;;;;1.98;0.80;;;21.70;30.70;;;;;;5037848;28;20033;-50
2023/01/17 10:56:49;;;;;;;1.65;0.75;;;21.70;30.80;;;;;;5037426;28;20041;-51
2023/01/17 10:59:29;;;;;;;3.17;0.90;;;21.70;30.80;;;;;;5038395;28;20528;-50
2023/01/17 11:01:56;;;;;;;2.30;0.80;;;21.70;30.80;;;;;;5021702;28;20029;-53
2023/01/17 11:04:39;;;;;;;1.23;0.65;;;21.60;30.70;;;;;;5035416;28;20025;-50
2023/01/17 11:07:12;;;;;;;2.45;0.80;;;21.70;30.80;;;;;;5034772;28;20033;-52
2023/01/17 11:09:50;;;;;;;1.45;0.75;;;21.70;30.80;;;;;;5036592;28;20068;-50
2023/01/17 11:12:34;;;;;;;3.83;1.27;;;21.60;31.30;;;;;;5038189;28;20030;-58
2023/01/17 11:15:08;;;;;;;1.77;1.00;;;21.60;30.70;;;;;;5036174;28;20041;-53
2023/01/17 11:17:48;;;;;;;2.92;0.77;;;21.60;30.90;;;;;;5034428;28;20037;-51
2023/01/17 11:20:21;;;;;;;3.47;1.05;;;21.60;31.00;;;;;;5042919;28;20567;-51
2023/01/17 11:23:02;;;;;;;2.33;0.90;;;21.60;31.10;;;;;;5038065;28;20064;-52
2023/01/17 11:25:33;;;;;;;1.40;0.70;;;21.60;31.10;;;;;;5037294;28;20026;-48
2023/01/17 11:28:06;;;;;;;2.45;0.80;;;21.50;31.00;;;;;;5021121;28;20048;-51
2023/01/17 11:30:33;;;;;;;2.45;1.00;;;21.50;31.00;;;;;;5036879;28;20452;-54
2023/01/17 11:33:03;;;;;;;3.38;0.73;;;21.50;31.00;;;;;;5031630;28;20329;-52
2023/01/17 11:35:31;;;;;;;5.15;0.95;;;21.50;31.00;;;;;;5033179;28;20405;-60
2023/01/17 11:38:13;;;;;;;1.95;1.00;;;21.50;31.20;;;;;;5020681;28;20034;-61
2023/01/17 11:40:44;;;;;;;2.13;0.80;;;21.50;31.30;;;;;;5029966;28;20034;-55
2023/01/17 11:43:26;;;;;;;3.20;1.23;;;21.50;31.60;;;;;;5017516;28;20113;-53
2023/01/17 11:46:16;;;;;;;3.17;0.93;;;21.60;31.70;;;;;;5030728;28;20037;-57
2023/01/17 11:48:50;;;;;;;2.17;0.82;;;21.60;31.70;;;;;;5029992;28;20025;-55
2023/01/17 11:51:31;;;;;;;2.15;0.93;;;21.70;31.70;;;;;;5025532;28;20030;-56
2023/01/17 11:54:28;;;;;;;2.45;1.00;;;21.80;31.70;;;;;;5035677;28;20030;-53
2023/01/17 11:56:59;;;;;;;2.65;0.80;;;21.90;31.70;;;;;;5036078;28;20106;-53
2023/01/17 11:59:36;;;;;;;1.83;0.80;;;22.00;31.70;;;;;;5031369;28;20460;-54
2023/01/17 12:02:20;;;;;;;3.20;0.60;;;22.10;31.70;;;;;;5035341;28;20053;-53
2023/01/17 12:05:02;;;;;;;2.90;0.70;;;22.20;31.70;;;;;;5036647;28;20122;-56
2023/01/17 12:07:41;;;;;;;4.95;0.70;;;22.30;31.60;;;;;;5029874;28;20030;-55
2023/01/17 12:10:20;;;;;;;1.55;0.70;;;22.40;31.60;;;;;;5037296;28;20029;-58
2023/01/17 12:16:33;;;;;;;2.90;0.73;;;22.60;31.60;;;;;;5024269;28;20033;-57
2023/01/17 12:19:10;;;;;;;1.75;0.90;;;22.70;31.60;;;;;;5036081;28;20132;-60
2023/01/17 12:21:39;;;;;;;2.00;0.80;;;22.80;31.40;;;;;;5022990;28;20042;-55
2023/01/17 12:24:26;;;;;;;1.25;0.68;;;22.80;31.30;;;;;;5014996;28;20095;-57
2023/01/17 12:27:11;;;;;;;0.77;0.50;;;22.90;31.30;;;;;;5030563;28;20033;-60
2023/01/17 12:30:14;;;;;;;2.60;0.85;;;22.90;31.30;;;;;;5036056;28;20034;-58
2023/01/17 12:33:07;;;;;;;1.77;0.98;;;23.00;31.20;;;;;;5030211;28;20392;-57
2023/01/17 12:35:42;;;;;;;4.22;0.90;;;23.10;31.00;;;;;;5026587;28;20022;-58
2023/01/17 12:38:11;;;;;;;3.42;1.08;;;23.10;30.80;;;;;;5034735;28;20082;-56
2023/01/17 12:40:41;;;;;;;1.85;0.90;;;23.10;30.60;;;;;;5023613;28;20453;-54
2023/01/17 12:43:23;;;;;;;1.27;0.60;;;23.20;30.60;;;;;;5034726;28;20413;-59
2023/01/17 12:45:53;;;;;;;2.90;0.80;;;23.20;30.50;;;;;;5032821;28;20037;-56
2023/01/17 12:48:21;;;;;;;3.60;0.80;;;23.20;30.50;;;;;;5034203;28;20026;-59
2023/01/17 12:50:47;;;;;;;1.30;0.63;;;23.30;30.50;;;;;;5035167;28;20048;-57
2023/01/17 12:53:36;;;;;;;1.27;0.68;;;23.30;30.50;;;;;;5032006;28;20034;-59
2023/01/17 12:56:06;;;;;;;2.22;0.80;;;23.30;30.50;;;;;;5033989;28;20029;-56
2023/01/17 12:58:46;;;;;;;1.85;0.70;;;23.40;30.50;;;;;;5018718;28;20059;-56
2023/01/17 13:01:38;;;;;;;2.15;0.70;;;23.40;30.50;;;;;;5033202;28;20030;-58
2023/01/17 13:04:37;;;;;;;2.60;0.70;;;23.40;30.50;;;;;;5033348;28;20417;-59
2023/01/17 13:07:29;;;;;;;1.60;0.80;;;23.50;30.60;;;;;;5031360;28;20026;-60
2023/01/17 13:10:21;;;;;;;2.13;0.95;;;23.40;30.50;;;;;;5015458;28;20365;-60
2023/01/17 13:12:49;;;;;;;1.45;0.70;;;23.50;30.40;;;;;;5005918;28;20492;-59
2023/01/17 13:15:20;;;;;;;2.72;0.68;;;23.50;30.30;;;;;;5001345;28;20365;-58
2023/01/17 13:17:54;;;;;;;1.35;0.70;;;23.50;30.20;;;;;;5032200;28;20140;-59
2023/01/17 13:20:30;;;;;;;1.20;0.68;;;23.50;30.20;;;;;;5034231;28;20049;-54
2023/01/17 13:23:06;;;;;;;1.80;0.88;;;23.50;30.20;;;;;;5023829;28;20108;-58
2023/01/17 13:25:45;;;;;;;1.75;0.77;;;23.50;30.10;;;;;;5032613;28;20026;-58
2023/01/17 13:28:14;;;;;;;2.53;0.70;;;23.60;30.10;;;;;;5022643;28;20037;-58
2023/01/17 13:30:51;;;;;;;1.10;0.60;;;23.50;30.10;;;;;;5034281;28;20471;-55
2023/01/17 13:33:56;;;;;;;1.95;0.55;;;23.60;30.20;;;;;;5032965;28;20049;-55
2023/01/17 13:36:31;;;;;;;1.00;0.57;;;23.60;30.50;;;;;;4987973;28;20124;-51
2023/01/17 13:39:15;;;;;;;;;;;23.60;31.20;;;;;;5020064;28;20030;-56
2023/01/17 13:41:44;;;;;;;1.37;0.50;;;23.60;30.40;;;;;;5030778;28;19952;-56
2023/01/17 13:44:21;;;;;;;1.15;0.60;;;23.60;30.30;;;;;;5032362;28;20116;-55
2023/01/17 13:47:03;;;;;;;1.15;0.60;;;23.60;30.40;;;;;;5034023;28;20392;-53
2023/01/17 13:49:32;;;;;;;2.58;0.90;;;23.60;30.40;;;;;;5033470;28;20412;-56
2023/01/17 13:52:09;;;;;;;1.65;0.70;;;23.60;30.40;;;;;;5034238;28;20067;-56
2023/01/17 13:54:50;;;;;;;2.28;0.60;;;23.60;30.30;;;;;;5034412;28;20322;-53
2023/01/17 13:57:25;;;;;;;1.48;0.50;;;23.60;30.10;;;;;;5030113;28;20037;-55
2023/01/17 13:59:52;;;;;;;2.47;0.57;;;23.70;30.00;;;;;;5033395;28;20038;-53
2023/01/17 14:02:37;;;;;;;0.80;0.50;;;23.70;30.00;;;;;;5033612;28;20033;-58
2023/01/17 14:05:16;;;;;;;0.77;0.50;;;23.70;29.90;;;;;;5032831;28;20466;-55
2023/01/17 14:07:54;;;;;;;1.95;0.73;;;23.70;30.00;;;;;;5032819;28;20039;-56
2023/01/17 14:10:40;;;;;;;1.50;0.68;;;23.70;30.20;;;;;;5029751;28;20164;-56
2023/01/17 14:13:30;;;;;;;1.50;0.70;;;23.70;30.40;;;;;;5031899;28;20033;-57
2023/01/17 14:15:57;;;;;;;1.17;0.63;;;23.70;30.50;;;;;;5028851;28;20113;-60
2023/01/17 14:18:39;;;;;;;1.65;0.70;;;23.70;30.50;;;;;;5024172;28;20064;-56
2023/01/17 14:21:26;;;;;;;1.67;0.60;;;23.70;30.80;;;;;;5031477;28;20125;-58
2023/01/17 14:23:59;;;;;;;1.98;0.68;;;23.70;31.10;;;;;;5037471;28;20507;-56
2023/01/17 14:26:40;;;;;;;1.45;0.55;;;23.70;31.20;;;;;;5032797;28;20121;-56
2023/01/17 14:29:44;;;;;;;2.05;0.73;;;23.80;31.40;;;;;;5027195;28;20452;-54
2023/01/17 14:32:13;;;;;;;1.73;0.57;;;23.80;31.50;;;;;;5031976;28;20037;-58
2023/01/17 14:34:39;;;;;;;0.70;0.45;;;23.80;31.40;;;;;;5033193;28;20112;-57
2023/01/17 14:37:35;;;;;;;1.45;0.75;;;23.80;31.30;;;;;;5029974;28;20026;-59